N2570U KRDU-KCLT
Flight info
| Callsign | N2570U |
|---|---|
| Flight time | 1h 22m |
| Altitude | 4000 |
| Route | LIB V409 CLT |
| Aircraft | PA28/L-SDGRY/S |
Departure
| Time | 2026-05-07 01:54 |
|---|---|
| Airport | Raleigh-Durham International Airport (KRDU) |
Arrival
| Time | 2026-05-07 03:17 |
|---|---|
| Airport | Charlotte Douglas International Airport (KCLT) |
| Time | Latitude | Longitude | Altitude | Speed | Heading |
|---|---|---|---|---|---|
| 2026-05-07 01:30 | 35.88064 | -78.78263 | 423 ft | 0 kts | 224° |
| 2026-05-07 01:48 | 35.88057 | -78.78269 | 426 ft | 6 kts | 214° |
| 2026-05-07 01:48 | 35.88011 | -78.78262 | 427 ft | 2 kts | 124° |
| 2026-05-07 01:48 | 35.87980 | -78.78223 | 425 ft | 9 kts | 136° |
| 2026-05-07 01:49 | 35.87964 | -78.78197 | 415 ft | 5 kts | 120° |
| 2026-05-07 01:49 | 35.87993 | -78.78141 | 425 ft | 9 kts | 45° |
| 2026-05-07 01:49 | 35.88006 | -78.78085 | 425 ft | 4 kts | 111° |
| 2026-05-07 01:49 | 35.87989 | -78.78055 | 421 ft | 0 kts | 134° |
| 2026-05-07 01:50 | 35.87978 | -78.78042 | 423 ft | 6 kts | 137° |
| 2026-05-07 01:50 | 35.87969 | -78.78032 | 425 ft | 0 kts | 137° |
| 2026-05-07 01:52 | 35.87964 | -78.78026 | 425 ft | 6 kts | 135° |
| 2026-05-07 01:52 | 35.87893 | -78.77979 | 422 ft | 14 kts | 192° |
| 2026-05-07 01:52 | 35.87865 | -78.78007 | 421 ft | 0 kts | 226° |
| 2026-05-07 01:53 | 35.87724 | -78.78182 | 423 ft | 60 kts | 224° |
| 2026-05-07 01:53 | 35.87374 | -78.78640 | 629 ft | 75 kts | 225° |
| 2026-05-07 01:54 | 35.87025 | -78.79150 | 922 ft | 79 kts | 227° |
| 2026-05-07 01:54 | 35.86788 | -78.79500 | 1156 ft | 78 kts | 232° |
| 2026-05-07 01:54 | 35.86352 | -78.80136 | 1654 ft | 67 kts | 230° |
| 2026-05-07 01:54 | 35.86068 | -78.80525 | 2039 ft | 57 kts | 227° |
| 2026-05-07 01:55 | 35.85798 | -78.80880 | 2316 ft | 58 kts | 227° |
| 2026-05-07 01:55 | 35.85485 | -78.81146 | 2578 ft | 64 kts | 195° |
| 2026-05-07 01:55 | 35.84983 | -78.80975 | 2787 ft | 78 kts | 173° |
| 2026-05-07 01:55 | 35.84502 | -78.80696 | 3088 ft | 79 kts | 172° |
| 2026-05-07 01:56 | 35.84011 | -78.80395 | 3398 ft | 76 kts | 172° |
| 2026-05-07 01:56 | 35.83554 | -78.80093 | 3684 ft | 75 kts | 173° |
| 2026-05-07 01:56 | 35.83079 | -78.79787 | 3902 ft | 80 kts | 174° |
| 2026-05-07 01:56 | 35.82524 | -78.79426 | 3982 ft | 100 kts | 171° |
| 2026-05-07 01:57 | 35.81851 | -78.79048 | 3978 ft | 112 kts | 172° |
| 2026-05-07 01:57 | 35.81137 | -78.79027 | 3979 ft | 100 kts | 214° |
| 2026-05-07 01:57 | 35.80527 | -78.79416 | 4035 ft | 101 kts | 211° |
| 2026-05-07 01:57 | 35.79767 | -78.79445 | 4008 ft | 121 kts | 180° |
| 2026-05-07 01:58 | 35.78970 | -78.79094 | 4076 ft | 122 kts | 173° |
| 2026-05-07 01:58 | 35.78172 | -78.78710 | 4078 ft | 125 kts | 173° |
| 2026-05-07 01:58 | 35.77637 | -78.78447 | 4091 ft | 126 kts | 172° |
| 2026-05-07 01:58 | 35.76528 | -78.77859 | 4006 ft | 131 kts | 169° |
| 2026-05-07 01:59 | 35.75714 | -78.77425 | 4021 ft | 125 kts | 171° |
| 2026-05-07 01:59 | 35.74962 | -78.77033 | 4030 ft | 123 kts | 171° |
| 2026-05-07 01:59 | 35.74167 | -78.76682 | 4020 ft | 116 kts | 185° |
| 2026-05-07 01:59 | 35.73506 | -78.76938 | 4053 ft | 95 kts | 235° |
| 2026-05-07 02:00 | 35.73454 | -78.77704 | 4095 ft | 100 kts | 288° |
| 2026-05-07 02:00 | 35.73876 | -78.78431 | 4057 ft | 104 kts | 284° |
| 2026-05-07 02:00 | 35.74103 | -78.79245 | 4110 ft | 99 kts | 277° |
| 2026-05-07 02:00 | 35.74257 | -78.80038 | 4198 ft | 92 kts | 272° |
| 2026-05-07 02:01 | 35.74351 | -78.80813 | 4230 ft | 91 kts | 270° |
| 2026-05-07 02:01 | 35.74394 | -78.81570 | 4245 ft | 87 kts | 257° |
| 2026-05-07 02:01 | 35.74265 | -78.82292 | 4172 ft | 88 kts | 254° |
| 2026-05-07 02:01 | 35.74131 | -78.83032 | 4145 ft | 86 kts | 261° |
| 2026-05-07 02:02 | 35.74163 | -78.83772 | 4073 ft | 92 kts | 272° |
| 2026-05-07 02:02 | 35.74268 | -78.84558 | 3990 ft | 95 kts | 271° |
| 2026-05-07 02:02 | 35.74335 | -78.85356 | 3956 ft | 92 kts | 267° |
| 2026-05-07 02:02 | 35.74394 | -78.86165 | 3959 ft | 98 kts | 268° |
| 2026-05-07 02:03 | 35.74465 | -78.87015 | 3960 ft | 101 kts | 269° |
| 2026-05-07 02:03 | 35.74541 | -78.87872 | 3964 ft | 101 kts | 269° |
| 2026-05-07 02:03 | 35.74619 | -78.88732 | 3966 ft | 102 kts | 269° |
| 2026-05-07 02:03 | 35.74699 | -78.89600 | 3966 ft | 102 kts | 269° |
| 2026-05-07 02:04 | 35.74780 | -78.90472 | 3966 ft | 103 kts | 269° |
| 2026-05-07 02:04 | 35.74861 | -78.91345 | 3967 ft | 103 kts | 269° |
| 2026-05-07 02:04 | 35.74942 | -78.92215 | 3966 ft | 102 kts | 270° |
| 2026-05-07 02:04 | 35.75021 | -78.93064 | 3964 ft | 100 kts | 270° |
| 2026-05-07 02:05 | 35.75101 | -78.93920 | 3961 ft | 99 kts | 270° |
| 2026-05-07 02:05 | 35.75178 | -78.94750 | 3962 ft | 97 kts | 270° |
| 2026-05-07 02:05 | 35.75253 | -78.95572 | 3961 ft | 96 kts | 270° |
| 2026-05-07 02:05 | 35.75329 | -78.96390 | 3963 ft | 96 kts | 270° |
| 2026-05-07 02:06 | 35.75404 | -78.97199 | 3965 ft | 97 kts | 270° |
| 2026-05-07 02:06 | 35.75480 | -78.98024 | 3967 ft | 97 kts | 269° |
| 2026-05-07 02:06 | 35.75557 | -78.98857 | 3969 ft | 98 kts | 270° |
| 2026-05-07 02:06 | 35.75635 | -78.99695 | 3971 ft | 99 kts | 270° |
| 2026-05-07 02:07 | 35.75713 | -79.00539 | 3972 ft | 100 kts | 270° |
| 2026-05-07 02:07 | 35.75871 | -79.02250 | 3977 ft | 102 kts | 269° |
| 2026-05-07 02:07 | 35.75951 | -79.03116 | 3978 ft | 102 kts | 269° |
| 2026-05-07 02:08 | 35.76031 | -79.03984 | 3978 ft | 102 kts | 269° |
| 2026-05-07 02:08 | 35.76111 | -79.04852 | 3979 ft | 102 kts | 269° |
| 2026-05-07 02:08 | 35.76191 | -79.05721 | 3979 ft | 102 kts | 269° |
| 2026-05-07 02:08 | 35.76270 | -79.06583 | 3982 ft | 101 kts | 268° |
| 2026-05-07 02:09 | 35.76349 | -79.07437 | 3978 ft | 100 kts | 268° |
| 2026-05-07 02:09 | 35.76426 | -79.08289 | 3980 ft | 100 kts | 268° |
| 2026-05-07 02:09 | 35.76505 | -79.09146 | 3978 ft | 101 kts | 268° |
| 2026-05-07 02:09 | 35.76583 | -79.10000 | 3978 ft | 100 kts | 268° |
| 2026-05-07 02:10 | 35.76661 | -79.10848 | 3981 ft | 100 kts | 268° |
| 2026-05-07 02:10 | 35.76738 | -79.11698 | 3981 ft | 100 kts | 268° |
| 2026-05-07 02:10 | 35.76816 | -79.12549 | 3982 ft | 100 kts | 268° |
| 2026-05-07 02:10 | 35.76894 | -79.13396 | 3980 ft | 99 kts | 268° |
| 2026-05-07 02:11 | 35.76971 | -79.14244 | 3978 ft | 100 kts | 268° |
| 2026-05-07 02:11 | 35.77047 | -79.15076 | 3977 ft | 98 kts | 268° |
| 2026-05-07 02:11 | 35.77122 | -79.15907 | 3975 ft | 98 kts | 268° |
| 2026-05-07 02:11 | 35.77198 | -79.16736 | 3974 ft | 97 kts | 268° |
| 2026-05-07 02:12 | 35.77273 | -79.17565 | 3971 ft | 97 kts | 268° |
| 2026-05-07 02:12 | 35.77348 | -79.18397 | 3972 ft | 98 kts | 267° |
| 2026-05-07 02:12 | 35.77425 | -79.19238 | 3977 ft | 97 kts | 267° |
| 2026-05-07 02:12 | 35.77500 | -79.20080 | 3963 ft | 99 kts | 268° |
| 2026-05-07 02:13 | 35.77577 | -79.20908 | 3995 ft | 98 kts | 267° |
| 2026-05-07 02:13 | 35.77652 | -79.21746 | 3997 ft | 99 kts | 267° |
| 2026-05-07 02:13 | 35.77728 | -79.22590 | 3993 ft | 99 kts | 267° |
| 2026-05-07 02:13 | 35.77804 | -79.23430 | 3996 ft | 99 kts | 268° |
| 2026-05-07 02:14 | 35.77880 | -79.24272 | 3996 ft | 99 kts | 268° |
| 2026-05-07 02:14 | 35.77956 | -79.25112 | 4000 ft | 99 kts | 268° |
| 2026-05-07 02:14 | 35.78032 | -79.25956 | 3998 ft | 99 kts | 267° |
| 2026-05-07 02:14 | 35.78109 | -79.26803 | 4000 ft | 100 kts | 268° |
| 2026-05-07 02:15 | 35.78185 | -79.27655 | 4006 ft | 101 kts | 268° |
| 2026-05-07 02:15 | 35.78263 | -79.28519 | 4005 ft | 102 kts | 268° |
| 2026-05-07 02:15 | 35.78341 | -79.29388 | 4008 ft | 102 kts | 268° |
| 2026-05-07 02:15 | 35.78420 | -79.30266 | 4011 ft | 104 kts | 268° |
| 2026-05-07 02:16 | 35.78499 | -79.31148 | 4014 ft | 104 kts | 268° |
| 2026-05-07 02:16 | 35.78579 | -79.32033 | 4015 ft | 104 kts | 268° |
| 2026-05-07 02:16 | 35.78658 | -79.32917 | 4015 ft | 104 kts | 268° |
| 2026-05-07 02:16 | 35.78737 | -79.33800 | 4016 ft | 104 kts | 268° |
| 2026-05-07 02:17 | 35.78816 | -79.34687 | 3985 ft | 106 kts | 268° |
| 2026-05-07 02:17 | 35.78898 | -79.35607 | 3934 ft | 107 kts | 269° |
| 2026-05-07 02:17 | 35.78953 | -79.36206 | 3933 ft | 105 kts | 268° |
| 2026-05-07 02:17 | 35.79032 | -79.37088 | 3930 ft | 102 kts | 267° |
| 2026-05-07 02:18 | 35.79109 | -79.37949 | 3928 ft | 101 kts | 267° |
| 2026-05-07 02:18 | 35.79185 | -79.38806 | 3925 ft | 101 kts | 267° |
| 2026-05-07 02:18 | 35.79260 | -79.39661 | 3924 ft | 100 kts | 267° |
| 2026-05-07 02:18 | 35.79336 | -79.40513 | 3925 ft | 100 kts | 267° |
| 2026-05-07 02:19 | 35.79412 | -79.41367 | 3923 ft | 101 kts | 268° |
| 2026-05-07 02:19 | 35.79488 | -79.42222 | 3925 ft | 100 kts | 267° |
| 2026-05-07 02:19 | 35.79564 | -79.43075 | 3931 ft | 100 kts | 266° |
| 2026-05-07 02:19 | 35.79639 | -79.43916 | 3926 ft | 98 kts | 266° |
| 2026-05-07 02:20 | 35.79713 | -79.44756 | 3927 ft | 99 kts | 266° |
| 2026-05-07 02:20 | 35.79787 | -79.45602 | 3935 ft | 100 kts | 266° |
| 2026-05-07 02:20 | 35.79863 | -79.46458 | 3937 ft | 101 kts | 266° |
| 2026-05-07 02:20 | 35.79939 | -79.47321 | 3941 ft | 102 kts | 266° |
| 2026-05-07 02:21 | 35.80016 | -79.48193 | 3937 ft | 103 kts | 267° |
| 2026-05-07 02:21 | 35.80094 | -79.49066 | 3936 ft | 103 kts | 267° |
| 2026-05-07 02:21 | 35.80171 | -79.49940 | 3936 ft | 103 kts | 267° |
| 2026-05-07 02:21 | 35.80248 | -79.50812 | 3937 ft | 102 kts | 266° |
| 2026-05-07 02:22 | 35.80324 | -79.51685 | 3933 ft | 103 kts | 266° |
| 2026-05-07 02:22 | 35.80401 | -79.52557 | 3933 ft | 102 kts | 267° |
| 2026-05-07 02:22 | 35.80477 | -79.53415 | 3927 ft | 102 kts | 267° |
| 2026-05-07 02:22 | 35.80552 | -79.54280 | 3929 ft | 102 kts | 267° |
| 2026-05-07 02:23 | 35.80628 | -79.55148 | 3932 ft | 102 kts | 267° |
| 2026-05-07 02:23 | 35.80704 | -79.56012 | 3924 ft | 101 kts | 267° |
| 2026-05-07 02:23 | 35.80780 | -79.56867 | 3926 ft | 100 kts | 267° |
| 2026-05-07 02:23 | 35.80854 | -79.57716 | 3928 ft | 101 kts | 267° |
| 2026-05-07 02:24 | 35.80929 | -79.58577 | 3928 ft | 101 kts | 267° |
| 2026-05-07 02:24 | 35.81004 | -79.59445 | 3929 ft | 103 kts | 267° |
| 2026-05-07 02:24 | 35.81081 | -79.60325 | 3929 ft | 103 kts | 267° |
| 2026-05-07 02:24 | 35.81094 | -79.61193 | 3926 ft | 99 kts | 251° |
| 2026-05-07 02:25 | 35.80717 | -79.61882 | 3923 ft | 98 kts | 231° |
| 2026-05-07 02:25 | 35.80264 | -79.62501 | 3928 ft | 97 kts | 231° |
| 2026-05-07 02:25 | 35.79812 | -79.63125 | 3923 ft | 98 kts | 231° |
| 2026-05-07 02:25 | 35.79358 | -79.63752 | 3915 ft | 98 kts | 230° |
| 2026-05-07 02:26 | 35.78904 | -79.64378 | 3921 ft | 98 kts | 230° |
| 2026-05-07 02:26 | 35.78453 | -79.65002 | 3919 ft | 98 kts | 230° |
| 2026-05-07 02:26 | 35.78000 | -79.65626 | 3918 ft | 98 kts | 230° |
| 2026-05-07 02:26 | 35.77547 | -79.66251 | 3933 ft | 98 kts | 230° |
| 2026-05-07 02:27 | 35.77095 | -79.66876 | 3931 ft | 98 kts | 230° |
| 2026-05-07 02:27 | 35.76642 | -79.67500 | 3933 ft | 98 kts | 230° |
| 2026-05-07 02:27 | 35.76186 | -79.68129 | 3931 ft | 98 kts | 230° |
| 2026-05-07 02:27 | 35.75734 | -79.68752 | 3934 ft | 97 kts | 230° |
| 2026-05-07 02:28 | 35.75282 | -79.69376 | 3942 ft | 98 kts | 230° |
| 2026-05-07 02:28 | 35.74828 | -79.70003 | 3950 ft | 98 kts | 230° |
| 2026-05-07 02:28 | 35.74375 | -79.70627 | 3948 ft | 98 kts | 230° |
| 2026-05-07 02:28 | 35.73921 | -79.71253 | 3949 ft | 98 kts | 230° |
| 2026-05-07 02:29 | 35.73468 | -79.71877 | 3952 ft | 99 kts | 230° |
| 2026-05-07 02:29 | 35.73016 | -79.72498 | 3951 ft | 97 kts | 230° |
| 2026-05-07 02:29 | 35.72569 | -79.73116 | 3951 ft | 96 kts | 230° |
| 2026-05-07 02:29 | 35.72126 | -79.73724 | 3975 ft | 95 kts | 230° |
| 2026-05-07 02:30 | 35.71686 | -79.74331 | 3985 ft | 96 kts | 230° |
| 2026-05-07 02:30 | 35.71237 | -79.74949 | 3989 ft | 97 kts | 229° |
| 2026-05-07 02:30 | 35.70782 | -79.75574 | 3994 ft | 99 kts | 230° |
| 2026-05-07 02:30 | 35.70321 | -79.76210 | 3998 ft | 100 kts | 230° |
| 2026-05-07 02:31 | 35.69859 | -79.76846 | 3998 ft | 99 kts | 230° |
| 2026-05-07 02:31 | 35.69401 | -79.77475 | 3998 ft | 98 kts | 230° |
| 2026-05-07 02:31 | 35.68951 | -79.78095 | 3999 ft | 96 kts | 231° |
| 2026-05-07 02:31 | 35.68506 | -79.78706 | 4002 ft | 96 kts | 230° |
| 2026-05-07 02:32 | 35.68056 | -79.79324 | 4005 ft | 98 kts | 230° |
| 2026-05-07 02:32 | 35.67601 | -79.79951 | 4006 ft | 98 kts | 230° |
| 2026-05-07 02:32 | 35.67147 | -79.80575 | 4006 ft | 98 kts | 229° |
| 2026-05-07 02:32 | 35.66696 | -79.81194 | 4003 ft | 96 kts | 230° |
| 2026-05-07 02:33 | 35.66253 | -79.81804 | 4003 ft | 95 kts | 230° |
| 2026-05-07 02:33 | 35.65811 | -79.82410 | 3999 ft | 94 kts | 229° |
| 2026-05-07 02:33 | 35.65374 | -79.83009 | 3997 ft | 94 kts | 230° |
| 2026-05-07 02:33 | 35.64941 | -79.83604 | 4000 ft | 94 kts | 230° |
| 2026-05-07 02:34 | 35.64504 | -79.84205 | 4001 ft | 95 kts | 230° |
| 2026-05-07 02:34 | 35.64066 | -79.84807 | 3998 ft | 94 kts | 230° |
| 2026-05-07 02:34 | 35.63629 | -79.85406 | 4003 ft | 95 kts | 230° |
| 2026-05-07 02:34 | 35.63186 | -79.86014 | 4003 ft | 96 kts | 230° |
| 2026-05-07 02:35 | 35.62744 | -79.86620 | 4002 ft | 95 kts | 230° |
| 2026-05-07 02:35 | 35.62301 | -79.87229 | 4006 ft | 96 kts | 229° |
| 2026-05-07 02:35 | 35.61854 | -79.87842 | 4004 ft | 96 kts | 230° |
| 2026-05-07 02:35 | 35.61407 | -79.88454 | 4002 ft | 95 kts | 230° |
| 2026-05-07 02:36 | 35.60968 | -79.89057 | 4004 ft | 95 kts | 230° |
| 2026-05-07 02:36 | 35.60527 | -79.89661 | 4004 ft | 95 kts | 230° |
| 2026-05-07 02:36 | 35.60092 | -79.90257 | 4006 ft | 95 kts | 230° |
| 2026-05-07 02:36 | 35.59648 | -79.90866 | 4009 ft | 97 kts | 230° |
| 2026-05-07 02:37 | 35.59199 | -79.91481 | 4007 ft | 96 kts | 230° |
| 2026-05-07 02:37 | 35.58748 | -79.92097 | 4006 ft | 97 kts | 229° |
| 2026-05-07 02:37 | 35.58300 | -79.92712 | 4006 ft | 97 kts | 230° |
| 2026-05-07 02:37 | 35.57849 | -79.93330 | 4002 ft | 97 kts | 230° |
| 2026-05-07 02:38 | 35.57396 | -79.93947 | 4010 ft | 98 kts | 230° |
| 2026-05-07 02:38 | 35.56939 | -79.94575 | 4011 ft | 99 kts | 230° |
| 2026-05-07 02:38 | 35.56476 | -79.95209 | 4003 ft | 99 kts | 230° |
| 2026-05-07 02:38 | 35.56019 | -79.95835 | 4002 ft | 98 kts | 230° |
| 2026-05-07 02:39 | 35.55567 | -79.96453 | 4001 ft | 97 kts | 230° |
| 2026-05-07 02:39 | 35.55121 | -79.97063 | 3996 ft | 95 kts | 229° |
| 2026-05-07 02:39 | 35.54675 | -79.97672 | 3996 ft | 96 kts | 229° |
| 2026-05-07 02:39 | 35.54226 | -79.98287 | 3997 ft | 97 kts | 229° |
| 2026-05-07 02:40 | 35.53769 | -79.98911 | 3994 ft | 99 kts | 230° |
| 2026-05-07 02:40 | 35.53306 | -79.99544 | 3994 ft | 100 kts | 230° |
| 2026-05-07 02:40 | 35.52842 | -80.00179 | 3993 ft | 100 kts | 230° |
| 2026-05-07 02:40 | 35.52376 | -80.00816 | 4025 ft | 100 kts | 230° |
| 2026-05-07 02:41 | 35.51915 | -80.01444 | 4027 ft | 98 kts | 230° |
| 2026-05-07 02:41 | 35.51457 | -80.02070 | 4005 ft | 99 kts | 230° |
| 2026-05-07 02:41 | 35.50996 | -80.02700 | 4014 ft | 99 kts | 230° |
| 2026-05-07 02:41 | 35.50536 | -80.03329 | 4015 ft | 99 kts | 230° |
| 2026-05-07 02:42 | 35.50075 | -80.03957 | 4023 ft | 99 kts | 230° |
| 2026-05-07 02:42 | 35.49611 | -80.04590 | 4023 ft | 100 kts | 230° |
| 2026-05-07 02:42 | 35.49152 | -80.05217 | 4021 ft | 98 kts | 230° |
| 2026-05-07 02:42 | 35.48697 | -80.05836 | 4025 ft | 97 kts | 231° |
| 2026-05-07 02:43 | 35.48243 | -80.06456 | 4034 ft | 98 kts | 231° |
| 2026-05-07 02:43 | 35.47790 | -80.07074 | 4041 ft | 97 kts | 231° |
| 2026-05-07 02:43 | 35.47337 | -80.07693 | 4037 ft | 98 kts | 230° |
| 2026-05-07 02:43 | 35.46880 | -80.08315 | 4030 ft | 98 kts | 230° |
| 2026-05-07 02:44 | 35.46424 | -80.08936 | 4034 ft | 97 kts | 229° |
| 2026-05-07 02:44 | 35.45973 | -80.09551 | 4029 ft | 97 kts | 229° |
| 2026-05-07 02:44 | 35.45524 | -80.10161 | 4029 ft | 96 kts | 230° |
| 2026-05-07 02:44 | 35.45076 | -80.10773 | 4031 ft | 97 kts | 229° |
| 2026-05-07 02:45 | 35.44623 | -80.11390 | 4031 ft | 98 kts | 230° |
| 2026-05-07 02:45 | 35.44172 | -80.12004 | 4037 ft | 99 kts | 230° |
| 2026-05-07 02:45 | 35.43711 | -80.12631 | 4029 ft | 99 kts | 230° |
| 2026-05-07 02:45 | 35.43250 | -80.13260 | 4031 ft | 99 kts | 230° |
| 2026-05-07 02:46 | 35.42788 | -80.13888 | 4032 ft | 99 kts | 231° |
| 2026-05-07 02:46 | 35.42331 | -80.14512 | 4037 ft | 98 kts | 230° |
| 2026-05-07 02:46 | 35.41878 | -80.15128 | 4033 ft | 97 kts | 229° |
| 2026-05-07 02:46 | 35.41426 | -80.15741 | 4033 ft | 97 kts | 229° |
| 2026-05-07 02:47 | 35.40976 | -80.16356 | 3989 ft | 97 kts | 229° |
| 2026-05-07 02:47 | 35.40525 | -80.16968 | 3994 ft | 97 kts | 230° |
| 2026-05-07 02:47 | 35.40270 | -80.17700 | 3983 ft | 100 kts | 263° |
| 2026-05-07 02:47 | 35.40323 | -80.18559 | 3985 ft | 101 kts | 265° |
| 2026-05-07 02:48 | 35.40360 | -80.19420 | 3989 ft | 101 kts | 265° |
| 2026-05-07 02:48 | 35.40396 | -80.20266 | 3991 ft | 99 kts | 264° |
| 2026-05-07 02:48 | 35.40442 | -80.21109 | 3990 ft | 99 kts | 264° |
| 2026-05-07 02:48 | 35.40490 | -80.21950 | 3990 ft | 99 kts | 264° |
| 2026-05-07 02:49 | 35.40538 | -80.22785 | 3986 ft | 97 kts | 265° |
| 2026-05-07 02:49 | 35.40571 | -80.23599 | 3985 ft | 95 kts | 265° |
| 2026-05-07 02:49 | 35.40602 | -80.24404 | 3987 ft | 94 kts | 264° |
| 2026-05-07 02:49 | 35.40635 | -80.25209 | 3983 ft | 94 kts | 264° |
| 2026-05-07 02:50 | 35.40679 | -80.26017 | 3977 ft | 95 kts | 264° |
| 2026-05-07 02:50 | 35.40736 | -80.26823 | 3977 ft | 96 kts | 264° |
| 2026-05-07 02:50 | 35.40793 | -80.27653 | 3978 ft | 99 kts | 264° |
| 2026-05-07 02:50 | 35.40846 | -80.28506 | 3977 ft | 101 kts | 265° |
| 2026-05-07 02:51 | 35.40893 | -80.29364 | 3982 ft | 99 kts | 264° |
| 2026-05-07 02:51 | 35.40934 | -80.30201 | 3983 ft | 98 kts | 264° |
| 2026-05-07 02:51 | 35.40985 | -80.31034 | 3981 ft | 97 kts | 264° |
| 2026-05-07 02:51 | 35.41041 | -80.31865 | 3976 ft | 98 kts | 264° |
| 2026-05-07 02:52 | 35.41092 | -80.32691 | 3972 ft | 99 kts | 264° |
| 2026-05-07 02:52 | 35.41135 | -80.33536 | 3969 ft | 100 kts | 264° |
| 2026-05-07 02:52 | 35.41178 | -80.34392 | 3962 ft | 101 kts | 265° |
| 2026-05-07 02:52 | 35.41207 | -80.35242 | 3954 ft | 99 kts | 264° |
| 2026-05-07 02:53 | 35.41233 | -80.36074 | 3957 ft | 98 kts | 265° |
| 2026-05-07 02:53 | 35.41264 | -80.36905 | 3956 ft | 97 kts | 264° |
| 2026-05-07 02:53 | 35.41290 | -80.37730 | 3953 ft | 96 kts | 265° |
| 2026-05-07 02:53 | 35.41327 | -80.38536 | 3948 ft | 94 kts | 264° |
| 2026-05-07 02:54 | 35.41381 | -80.39332 | 3947 ft | 94 kts | 264° |
| 2026-05-07 02:54 | 35.41438 | -80.40131 | 3945 ft | 94 kts | 264° |
| 2026-05-07 02:54 | 35.41497 | -80.40944 | 3940 ft | 96 kts | 264° |
| 2026-05-07 02:54 | 35.41556 | -80.41763 | 3942 ft | 97 kts | 264° |
| 2026-05-07 02:55 | 35.41614 | -80.42573 | 3938 ft | 94 kts | 264° |
| 2026-05-07 02:55 | 35.41674 | -80.43360 | 3932 ft | 91 kts | 264° |
| 2026-05-07 02:55 | 35.41733 | -80.44133 | 3937 ft | 93 kts | 264° |
| 2026-05-07 02:55 | 35.41788 | -80.44933 | 3931 ft | 96 kts | 264° |
| 2026-05-07 02:56 | 35.41843 | -80.45756 | 3937 ft | 98 kts | 265° |
| 2026-05-07 02:56 | 35.41888 | -80.46597 | 3936 ft | 99 kts | 264° |
| 2026-05-07 02:56 | 35.41914 | -80.47442 | 3939 ft | 99 kts | 265° |
| 2026-05-07 02:56 | 35.41938 | -80.48291 | 3942 ft | 100 kts | 264° |
| 2026-05-07 02:57 | 35.41966 | -80.49140 | 3944 ft | 99 kts | 264° |
| 2026-05-07 02:57 | 35.41995 | -80.49987 | 3946 ft | 100 kts | 264° |
| 2026-05-07 02:57 | 35.42023 | -80.50833 | 3944 ft | 99 kts | 264° |
| 2026-05-07 02:57 | 35.42052 | -80.51673 | 3943 ft | 100 kts | 265° |
| 2026-05-07 02:58 | 35.42082 | -80.52541 | 3941 ft | 101 kts | 264° |
| 2026-05-07 02:58 | 35.42115 | -80.53399 | 3943 ft | 100 kts | 264° |
| 2026-05-07 02:58 | 35.42150 | -80.54241 | 3945 ft | 97 kts | 264° |
| 2026-05-07 02:58 | 35.42189 | -80.55045 | 3947 ft | 95 kts | 264° |
| 2026-05-07 02:59 | 35.42232 | -80.55856 | 3942 ft | 95 kts | 264° |
| 2026-05-07 02:59 | 35.42276 | -80.56659 | 3933 ft | 93 kts | 264° |
| 2026-05-07 02:59 | 35.42321 | -80.57433 | 3937 ft | 91 kts | 263° |
| 2026-05-07 02:59 | 35.42309 | -80.58213 | 3932 ft | 91 kts | 261° |
| 2026-05-07 03:00 | 35.42291 | -80.58984 | 3931 ft | 91 kts | 261° |
| 2026-05-07 03:00 | 35.42271 | -80.59771 | 3935 ft | 92 kts | 261° |
| 2026-05-07 03:00 | 35.42250 | -80.60572 | 3939 ft | 95 kts | 261° |
| 2026-05-07 03:00 | 35.42228 | -80.61392 | 3932 ft | 96 kts | 261° |
| 2026-05-07 03:01 | 35.42208 | -80.62206 | 3936 ft | 97 kts | 261° |
| 2026-05-07 03:01 | 35.42188 | -80.63030 | 4020 ft | 96 kts | 261° |
| 2026-05-07 03:01 | 35.42168 | -80.63851 | 4021 ft | 96 kts | 261° |
| 2026-05-07 03:01 | 35.42146 | -80.64671 | 4023 ft | 96 kts | 261° |
| 2026-05-07 03:02 | 35.42124 | -80.65482 | 4022 ft | 95 kts | 261° |
| 2026-05-07 03:02 | 35.42102 | -80.66289 | 4019 ft | 94 kts | 261° |
| 2026-05-07 03:02 | 35.42074 | -80.67081 | 4012 ft | 92 kts | 259° |
| 2026-05-07 03:02 | 35.41922 | -80.67822 | 4011 ft | 89 kts | 250° |
| 2026-05-07 03:03 | 35.41739 | -80.68546 | 4008 ft | 89 kts | 251° |
| 2026-05-07 03:03 | 35.41557 | -80.69263 | 4006 ft | 88 kts | 250° |
| 2026-05-07 03:03 | 35.41378 | -80.69973 | 4010 ft | 87 kts | 250° |
| 2026-05-07 03:03 | 35.41196 | -80.70699 | 3991 ft | 87 kts | 251° |
| 2026-05-07 03:04 | 35.41024 | -80.71374 | 4008 ft | 84 kts | 250° |
| 2026-05-07 03:04 | 35.40912 | -80.71847 | 4016 ft | 87 kts | 250° |
| 2026-05-07 03:04 | 35.40744 | -80.72565 | 4021 ft | 90 kts | 250° |
| 2026-05-07 03:04 | 35.40572 | -80.73317 | 4021 ft | 92 kts | 250° |
| 2026-05-07 03:05 | 35.40400 | -80.74074 | 4019 ft | 93 kts | 251° |
| 2026-05-07 03:05 | 35.40222 | -80.74841 | 4020 ft | 93 kts | 250° |
| 2026-05-07 03:05 | 35.40045 | -80.75603 | 4017 ft | 94 kts | 250° |
| 2026-05-07 03:05 | 35.39868 | -80.76389 | 4014 ft | 98 kts | 251° |
| 2026-05-07 03:06 | 35.39693 | -80.77216 | 4020 ft | 102 kts | 251° |
| 2026-05-07 03:06 | 35.39509 | -80.78064 | 4018 ft | 104 kts | 251° |
| 2026-05-07 03:06 | 35.39323 | -80.78919 | 4020 ft | 104 kts | 250° |
| 2026-05-07 03:06 | 35.39131 | -80.79781 | 4023 ft | 105 kts | 250° |
| 2026-05-07 03:07 | 35.38942 | -80.80637 | 4021 ft | 103 kts | 250° |
| 2026-05-07 03:07 | 35.38756 | -80.81480 | 4019 ft | 102 kts | 250° |
| 2026-05-07 03:07 | 35.38580 | -80.82313 | 4015 ft | 100 kts | 250° |
| 2026-05-07 03:07 | 35.38417 | -80.83138 | 4005 ft | 99 kts | 250° |
| 2026-05-07 03:08 | 35.38259 | -80.83964 | 4001 ft | 100 kts | 251° |
| 2026-05-07 03:08 | 35.38103 | -80.84790 | 4006 ft | 100 kts | 251° |
| 2026-05-07 03:08 | 35.37943 | -80.85621 | 4007 ft | 101 kts | 251° |
| 2026-05-07 03:08 | 35.37777 | -80.86464 | 4005 ft | 103 kts | 251° |
| 2026-05-07 03:09 | 35.37598 | -80.87318 | 3991 ft | 104 kts | 251° |
| 2026-05-07 03:09 | 35.37410 | -80.88173 | 3993 ft | 104 kts | 251° |
| 2026-05-07 03:09 | 35.37221 | -80.89024 | 3991 ft | 104 kts | 251° |
| 2026-05-07 03:09 | 35.37032 | -80.89876 | 3991 ft | 104 kts | 251° |
| 2026-05-07 03:10 | 35.36843 | -80.90732 | 3975 ft | 104 kts | 250° |
| 2026-05-07 03:10 | 35.36661 | -80.91577 | 3972 ft | 102 kts | 250° |
| 2026-05-07 03:10 | 35.36489 | -80.92408 | 3978 ft | 102 kts | 250° |
| 2026-05-07 03:10 | 35.36318 | -80.93253 | 3978 ft | 102 kts | 251° |
| 2026-05-07 03:11 | 35.36133 | -80.94085 | 3976 ft | 99 kts | 242° |
| 2026-05-07 03:11 | 35.35532 | -80.94469 | 3973 ft | 107 kts | 196° |
| 2026-05-07 03:11 | 35.34782 | -80.94410 | 4089 ft | 107 kts | 186° |
| 2026-05-07 03:11 | 35.34060 | -80.94269 | 4110 ft | 104 kts | 183° |
| 2026-05-07 03:12 | 35.33366 | -80.94016 | 3904 ft | 100 kts | 182° |
| 2026-05-07 03:12 | 35.32723 | -80.93823 | 3702 ft | 92 kts | 184° |
| 2026-05-07 03:12 | 35.32125 | -80.93571 | 3497 ft | 90 kts | 184° |
| 2026-05-07 03:12 | 35.31559 | -80.93401 | 3355 ft | 77 kts | 196° |
| 2026-05-07 03:13 | 35.31037 | -80.93376 | 3196 ft | 74 kts | 206° |
| 2026-05-07 03:13 | 35.30524 | -80.93486 | 3009 ft | 76 kts | 209° |
| 2026-05-07 03:13 | 35.30010 | -80.93651 | 2912 ft | 77 kts | 212° |
| 2026-05-07 03:13 | 35.29480 | -80.93857 | 2731 ft | 84 kts | 213° |
| 2026-05-07 03:14 | 35.28882 | -80.94066 | 2469 ft | 96 kts | 201° |
| 2026-05-07 03:14 | 35.28208 | -80.94097 | 2243 ft | 100 kts | 188° |
| 2026-05-07 03:14 | 35.26852 | -80.93980 | 1766 ft | 101 kts | 189° |
| 2026-05-07 03:15 | 35.26138 | -80.93934 | 1590 ft | 103 kts | 186° |
| 2026-05-07 03:15 | 35.25449 | -80.93868 | 1452 ft | 96 kts | 183° |
| 2026-05-07 03:15 | 35.24808 | -80.93795 | 1320 ft | 87 kts | 187° |
| 2026-05-07 03:15 | 35.24190 | -80.93753 | 1207 ft | 94 kts | 186° |
| 2026-05-07 03:16 | 35.23518 | -80.93709 | 1062 ft | 96 kts | 185° |
| 2026-05-07 03:16 | 35.22881 | -80.93644 | 883 ft | 86 kts | 185° |
| 2026-05-07 03:16 | 35.22339 | -80.93599 | 752 ft | 73 kts | 184° |
| 2026-05-07 03:16 | 35.21892 | -80.93558 | 725 ft | 56 kts | 181° |
| 2026-05-07 03:17 | 35.21537 | -80.93539 | 719 ft | 47 kts | 176° |
| 2026-05-07 03:17 | 35.21258 | -80.93510 | 716 ft | 23 kts | 176° |
| 2026-05-07 03:17 | 35.21172 | -80.93442 | 713 ft | 14 kts | 131° |
| 2026-05-07 03:17 | 35.21137 | -80.93393 | 713 ft | 0 kts | 131° |
| 2026-05-07 03:19 | 35.21137 | -80.93392 | 713 ft | 1 kts | 130° |
| 2026-05-07 03:20 | 35.21121 | -80.93320 | 713 ft | 12 kts | 84° |
| 2026-05-07 03:20 | 35.21106 | -80.93235 | 716 ft | 11 kts | 169° |
| 2026-05-07 03:20 | 35.21035 | -80.93224 | 714 ft | 11 kts | 171° |
| 2026-05-07 03:20 | 35.21011 | -80.93214 | 716 ft | 2 kts | 119° |
| 2026-05-07 03:21 | 35.21010 | -80.93206 | 712 ft | 1 kts | 92° |
| 2026-05-07 03:21 | 35.21010 | -80.93196 | 712 ft | 0 kts | 90° |